Time;durP1;ratioP1;P1;durP2;ratioP2;P2;SDS_P1;SDS_P2;PMS_P1;PMS_P2;Temp;Humidity;BMP_temperature;BMP_pressure;BME280_temperature;BME280_humidity;BME280_pressure;Samples;Min_cycle;Max_cycle;Signal;HPM_P1;HPM_P2
2022/11/08 00:01:35;;;;;;;6.80;1.77;;;;;;;12.16;100.00;155578.06;5006301;28;20040;-74
2022/11/08 00:04:06;;;;;;;7.47;1.90;;;;;;;12.19;100.00;155587.06;5006584;28;20476;-72
2022/11/08 00:14:46;;;;;;;5.30;1.67;;;;;;;12.40;100.00;155639.72;5007854;28;20117;-73
2022/11/08 00:17:14;;;;;;;6.95;1.70;;;;;;;12.43;100.00;155646.09;4989569;28;20132;-73
2022/11/08 00:19:40;;;;;;;7.15;1.80;;;;;;;12.41;100.00;155640.97;4991279;28;20034;-73
2022/11/08 00:22:06;;;;;;;5.85;1.92;;;;;;;12.45;100.00;155651.25;5023474;28;20030;-74
2022/11/08 00:24:33;;;;;;;5.88;1.80;;;;;;;12.43;100.00;155647.44;5005919;28;20042;-73
2022/11/08 00:26:59;;;;;;;5.95;1.48;;;;;;;12.43;100.00;155647.44;5005258;28;20056;-74
2022/11/08 00:29:25;;;;;;;5.53;1.80;;;;;;;12.44;100.00;155648.69;5002461;28;20404;-74
2022/11/08 00:31:51;;;;;;;6.43;1.48;;;;;;;12.48;100.00;155657.69;4969677;28;20038;-74
2022/11/08 00:34:16;;;;;;;8.88;2.00;;;;;;;12.35;100.00;155625.56;5005819;28;20041;-74
2022/11/08 00:36:42;;;;;;;7.57;1.77;;;;;;;12.36;100.00;155628.16;4973019;28;20030;-73
2022/11/08 00:39:09;;;;;;;6.95;1.65;;;;;;;12.25;100.00;155602.44;5005450;28;20719;-74
2022/11/08 00:41:34;;;;;;;9.35;2.03;;;;;;;12.20;100.00;155588.31;4997626;28;20506;-74
2022/11/08 00:44:00;;;;;;;5.68;1.63;;;;;;;12.23;100.00;155596.06;4989421;28;20045;-74
2022/11/08 00:46:25;;;;;;;6.15;1.58;;;;;;;12.14;100.00;155574.19;4990193;28;20109;-74
2022/11/08 00:48:51;;;;;;;6.03;1.45;;;;;;;12.08;100.00;155558.81;4991149;28;20072;-74
2022/11/08 00:51:16;;;;;;;5.70;1.60;;;;;;;12.04;100.00;155549.81;5010126;28;20141;-74
2022/11/08 00:53:42;;;;;;;5.88;1.58;;;;;;;11.90;100.00;155513.84;5005993;28;20506;-73
2022/11/08 00:56:11;;;;;;;7.13;1.58;;;;;;;11.90;100.00;155512.56;5007546;28;20041;-74
2022/11/08 00:58:37;;;;;;;8.02;1.88;;;;;;;11.95;100.00;155526.69;4999128;28;20041;-74
2022/11/08 01:01:18;;;;;;;6.30;1.65;;;;;;;11.85;100.00;155502.25;4998532;28;20034;-75
2022/11/08 01:03:45;;;;;;;5.63;1.67;;;;;;;11.75;100.00;155475.28;5006419;28;20044;-74
2022/11/08 01:06:12;;;;;;;6.63;1.60;;;;;;;11.70;100.00;155463.75;5007053;28;20045;-73
2022/11/08 01:08:38;;;;;;;7.80;1.60;;;;;;;11.70;100.00;155463.75;5005918;28;20030;-73
2022/11/08 01:11:08;;;;;;;7.00;1.65;;;;;;;11.63;100.00;155445.75;5006138;28;20592;-72
2022/11/08 01:13:34;;;;;;;8.75;1.80;;;;;;;11.62;100.00;155444.50;4987220;28;20146;-73
2022/11/08 01:16:11;;;;;;;6.20;1.50;;;;;;;11.52;100.00;155418.78;4976548;28;20852;-73
2022/11/08 01:18:37;;;;;;;6.85;1.80;;;;;;;11.54;100.00;155422.66;5006108;28;20029;-72
2022/11/08 01:21:03;;;;;;;7.05;1.80;;;;;;;11.50;100.00;155413.66;5000439;28;20694;-72
2022/11/08 01:23:30;;;;;;;6.13;1.67;;;;;;;11.44;100.00;155399.53;5006942;28;20432;-73
2022/11/08 01:25:55;;;;;;;5.60;1.67;;;;;;;11.40;100.00;155388.00;5011457;28;20113;-73
2022/11/08 01:28:21;;;;;;;11.45;2.17;;;;;;;11.37;100.00;155380.28;4982660;28;20161;-73
2022/11/08 01:30:47;;;;;;;7.50;1.67;;;;;;;11.30;100.00;155363.56;5005134;28;20419;-73
2022/11/08 01:33:13;;;;;;;5.05;1.50;;;;;;;11.44;100.00;155399.53;5004375;28;20049;-73
2022/11/08 01:35:42;;;;;;;5.43;1.60;;;;;;;11.38;100.00;155382.88;5004215;28;20045;-73
2022/11/08 01:38:09;;;;;;;4.32;1.38;;;;;;;11.39;100.00;155385.41;5003019;28;20034;-73
2022/11/08 01:40:45;;;;;;;7.55;1.67;;;;;;;11.32;100.00;155368.75;5004838;28;20026;-73
2022/11/08 01:43:32;;;;;;;6.70;1.65;;;;;;;11.21;100.00;155340.53;5003311;28;20037;-72
2022/11/08 01:46:17;;;;;;;6.22;1.50;;;;;;;11.15;100.00;155325.09;5005547;28;20053;-74
2022/11/08 01:48:48;;;;;;;8.25;1.70;;;;;;;11.04;100.00;155299.44;5001225;28;20026;-72
2022/11/08 01:51:19;;;;;;;7.28;2.10;;;;;;;11.00;100.00;155287.88;4996779;28;20045;-72
2022/11/08 01:53:46;;;;;;;10.25;2.05;;;;;;;11.03;100.00;155296.84;5000615;28;20034;-72
2022/11/08 01:56:14;;;;;;;8.75;1.75;;;;;;;10.96;100.00;155277.59;5004494;28;20029;-72
2022/11/08 01:58:44;;;;;;;8.02;2.00;;;;;;;11.10;100.00;155313.56;5003518;28;20040;-72
2022/11/08 02:01:11;;;;;;;7.03;1.50;;;;;;;11.03;100.00;155295.56;4998692;28;20542;-73
2022/11/08 02:03:39;;;;;;;5.50;1.70;;;;;;;11.04;100.00;155299.44;4999719;28;20056;-73
2022/11/08 02:06:06;;;;;;;6.10;1.70;;;;;;;11.09;100.00;155312.28;5002587;28;20104;-72
2022/11/08 02:08:38;;;;;;;10.50;2.00;;;;;;;11.00;100.00;155287.88;5020999;28;20480;-73
2022/11/08 02:11:05;;;;;;;8.38;1.60;;;;;;;10.97;100.00;155281.47;5006932;28;20131;-72
2022/11/08 02:13:33;;;;;;;6.45;1.63;;;;;;;11.09;100.00;155312.28;5001366;28;20029;-73
2022/11/08 02:15:59;;;;;;;10.07;2.28;;;;;;;11.20;100.00;155339.19;5005672;28;20037;-73
2022/11/08 02:18:27;;;;;;;10.95;1.80;;;;;;;11.14;100.00;155323.81;5004396;28;20029;-72
2022/11/08 02:20:57;;;;;;;4.63;1.60;;;;;;;11.15;100.00;155325.09;5010382;28;20029;-72
2022/11/08 02:23:48;;;;;;;9.43;1.75;;;;;;;11.24;100.00;155348.19;4990525;28;20042;-71
2022/11/08 02:26:15;;;;;;;8.52;1.92;;;;;;;11.26;100.00;155353.31;5024534;28;20072;-72
2022/11/08 02:28:46;;;;;;;8.85;1.88;;;;;;;11.37;100.00;155380.28;4992760;28;20169;-72
2022/11/08 02:31:15;;;;;;;7.38;1.55;;;;;;;11.37;100.00;155381.56;4989945;28;20053;-72
2022/11/08 02:33:42;;;;;;;9.93;1.77;;;;;;;11.37;100.00;155381.56;4990106;28;20038;-72
2022/11/08 02:36:11;;;;;;;6.57;1.80;;;;;;;11.40;100.00;155389.28;5008175;28;20391;-73
2022/11/08 02:38:44;;;;;;;8.30;1.70;;;;;;;11.44;100.00;155398.25;4993378;28;20040;-73
2022/11/08 02:41:10;;;;;;;8.68;2.05;;;;;;;11.49;100.00;155412.38;4991092;28;20088;-72
2022/11/08 02:43:36;;;;;;;10.85;1.90;;;;;;;11.56;100.00;155427.78;4998698;28;20251;-72
2022/11/08 02:46:02;;;;;;;8.75;1.98;;;;;;;11.65;100.00;155452.16;4982726;28;20046;-72
2022/11/08 02:48:28;;;;;;;9.02;2.15;;;;;;;11.63;100.00;155445.75;4989319;28;20041;-72
2022/11/08 02:50:53;;;;;;;6.50;1.23;;;;;;;11.80;100.00;155488.13;5006667;28;20480;-73
2022/11/08 02:53:19;;;;;;;9.50;1.80;;;;;;;11.77;100.00;155480.41;4991439;28;20422;-72
2022/11/08 02:55:44;;;;;;;8.07;1.67;;;;;;;11.73;100.00;155470.16;5024415;28;20341;-72
2022/11/08 02:58:11;;;;;;;9.35;1.75;;;;;;;11.65;100.00;155452.16;4989086;28;20788;-74
2022/11/08 03:00:38;;;;;;;9.18;1.80;;;;;;;11.68;100.00;155458.63;4985944;28;20042;-72
2022/11/08 03:03:04;;;;;;;7.43;1.70;;;;;;;11.72;100.00;155468.88;5008232;28;20040;-72
2022/11/08 03:05:30;;;;;;;8.00;1.75;;;;;;;11.77;100.00;155481.72;5007881;28;20046;-72
2022/11/08 03:07:55;;;;;;;10.57;2.35;;;;;;;11.85;100.00;155500.97;5007471;28;20041;-72
2022/11/08 03:10:23;;;;;;;10.32;1.88;;;;;;;11.84;100.00;155498.38;5023353;28;20048;-72
2022/11/08 03:13:00;;;;;;;7.82;1.73;;;;;;;11.75;100.00;155476.53;4983952;28;20034;-72
2022/11/08 03:15:26;;;;;;;7.07;1.85;;;;;;;11.80;100.00;155489.41;5023064;28;20555;-72
2022/11/08 03:17:54;;;;;;;8.02;1.50;;;;;;;11.77;100.00;155481.72;4991514;28;20179;-72
2022/11/08 03:20:19;;;;;;;12.48;2.10;;;;;;;11.76;100.00;155479.13;5004640;28;20498;-73
2022/11/08 03:22:46;;;;;;;10.85;2.05;;;;;;;11.84;100.00;155499.66;4991999;28;20026;-73
2022/11/08 03:25:12;;;;;;;7.93;1.95;;;;;;;11.78;100.00;155483.00;5007139;28;20446;-73
2022/11/08 03:27:38;;;;;;;11.30;2.05;;;;;;;11.76;100.00;155479.13;5013133;28;20495;-73
2022/11/08 03:30:05;;;;;;;9.68;2.13;;;;;;;11.69;100.00;155462.44;5023866;28;20037;-73
2022/11/08 03:32:31;;;;;;;8.27;1.85;;;;;;;11.55;100.00;155426.50;4990744;28;20159;-73
2022/11/08 03:34:58;;;;;;;7.43;1.83;;;;;;;11.54;100.00;155422.66;4990609;28;20037;-74
2022/11/08 03:37:24;;;;;;;11.98;2.10;;;;;;;11.47;100.00;155407.25;5006703;28;20499;-73
2022/11/08 03:39:50;;;;;;;9.95;1.90;;;;;;;11.40;100.00;155388.00;5008649;28;20484;-73
2022/11/08 03:42:15;;;;;;;8.68;2.00;;;;;;;11.39;100.00;155386.69;5006450;28;20041;-73
2022/11/08 03:44:41;;;;;;;6.78;1.90;;;;;;;11.39;100.00;155385.41;4988177;28;20109;-73
2022/11/08 03:47:08;;;;;;;10.52;1.80;;;;;;;11.27;100.00;155357.19;5016949;28;20041;-74
2022/11/08 03:49:33;;;;;;;11.18;1.63;;;;;;;11.23;100.00;155346.91;4990520;28;20034;-73
2022/11/08 03:51:59;;;;;;;7.05;1.90;;;;;;;11.19;100.00;155336.66;4991499;28;20415;-72
2022/11/08 03:54:25;;;;;;;8.35;1.90;;;;;;;11.14;100.00;155322.53;4989229;28;20042;-73
2022/11/08 03:56:50;;;;;;;7.82;1.85;;;;;;;10.99;100.00;155286.59;5005597;28;20041;-73
2022/11/08 03:59:16;;;;;;;10.50;2.00;;;;;;;11.02;100.00;155294.31;5022542;28;20052;-72
2022/11/08 04:01:42;;;;;;;6.45;1.85;;;;;;;10.98;100.00;155284.06;5007002;28;20091;-73
2022/11/08 04:04:08;;;;;;;9.13;1.90;;;;;;;10.90;100.00;155264.75;5006013;28;20060;-72
2022/11/08 04:06:34;;;;;;;5.97;1.90;;;;;;;10.91;100.00;155267.34;4990255;28;20038;-73
2022/11/08 04:08:59;;;;;;;9.00;2.05;;;;;;;10.87;100.00;155257.09;5001666;28;20492;-73
2022/11/08 04:16:54;;;;;;;8.70;2.20;;;;;;;10.59;100.00;155185.25;5017382;28;20050;-73
2022/11/08 04:22:06;;;;;;;9.82;2.10;;;;;;;10.33;100.00;155122.38;5005184;28;20029;-73
2022/11/08 04:24:32;;;;;;;10.57;2.10;;;;;;;10.27;100.00;155105.66;5004530;28;20030;-72
2022/11/08 04:26:57;;;;;;;8.05;1.85;;;;;;;10.14;100.00;155073.59;5006462;28;20044;-73
2022/11/08 04:29:23;;;;;;;11.43;2.10;;;;;;;10.09;100.00;155060.75;4987812;28;20399;-73
2022/11/08 04:31:49;;;;;;;12.90;2.17;;;;;;;10.18;100.00;155083.84;4998960;28;20104;-73
2022/11/08 04:34:14;;;;;;;13.60;2.17;;;;;;;10.07;100.00;155055.63;4995127;28;20108;-73
2022/11/08 04:36:40;;;;;;;9.48;2.17;;;;;;;9.98;100.00;155032.53;4990028;28;20508;-73
2022/11/08 04:39:05;;;;;;;12.38;1.80;;;;;;;9.90;100.00;155014.56;4971626;28;20145;-72
2022/11/08 04:41:31;;;;;;;10.18;2.25;;;;;;;9.86;100.00;155004.31;4998684;28;20030;-72
2022/11/08 04:43:57;;;;;;;11.43;2.25;;;;;;;9.83;100.00;154996.66;5005760;28;20030;-73
2022/11/08 04:46:25;;;;;;;6.55;1.80;;;;;;;9.91;100.00;155017.16;4988696;28;20320;-73
2022/11/08 04:48:55;;;;;;;7.50;1.75;;;;;;;9.81;100.00;154990.22;5023413;28;20048;-73
2022/11/08 04:51:29;;;;;;;10.35;2.13;;;;;;;9.75;100.00;154976.09;5015389;28;21102;-73
2022/11/08 04:53:57;;;;;;;13.07;2.40;;;;;;;9.78;100.00;154982.56;5002887;28;20060;-73
2022/11/08 04:56:24;;;;;;;8.77;2.10;;;;;;;9.72;100.00;154968.44;5005755;28;20874;-72
2022/11/08 04:58:52;;;;;;;7.85;2.28;;;;;;;9.73;100.00;154970.97;5005967;28;20021;-72
2022/11/08 05:01:20;;;;;;;6.72;1.88;;;;;;;9.72;100.00;154969.72;5021586;28;20380;-73
2022/11/08 05:03:47;;;;;;;11.25;2.53;;;;;;;9.78;100.00;154983.81;5005476;28;20040;-73
2022/11/08 05:06:16;;;;;;;9.20;1.90;;;;;;;9.69;100.00;154960.75;5005740;28;20042;-72
2022/11/08 05:08:42;;;;;;;7.95;2.00;;;;;;;9.68;100.00;154959.47;5008257;28;20041;-72
2022/11/08 05:11:10;;;;;;;8.57;2.35;;;;;;;9.67;100.00;154956.88;5006464;28;20072;-73
2022/11/08 05:13:37;;;;;;;7.30;1.77;;;;;;;9.67;100.00;154956.88;4989539;28;20029;-72
2022/11/08 05:16:06;;;;;;;8.95;2.13;;;;;;;9.63;100.00;154945.38;4989309;28;20057;-72
2022/11/08 05:18:32;;;;;;;9.05;2.25;;;;;;;9.72;100.00;154968.44;4987594;28;20053;-72
2022/11/08 05:23:45;;;;;;;8.95;2.10;;;;;;;9.51;100.00;154915.84;5005536;28;20030;-73
2022/11/08 05:26:11;;;;;;;9.18;2.20;;;;;;;9.43;100.00;154895.34;5006136;28;20709;-73
2022/11/08 05:28:39;;;;;;;8.38;1.80;;;;;;;9.41;100.00;154891.50;5007341;28;20041;-73
2022/11/08 05:31:06;;;;;;;11.70;1.80;;;;;;;9.42;100.00;154894.06;5005742;28;20061;-73
2022/11/08 05:33:32;;;;;;;10.18;2.40;;;;;;;9.43;100.00;154895.34;4989465;28;20372;-73
2022/11/08 05:36:02;;;;;;;7.07;2.20;;;;;;;9.41;100.00;154891.50;5003467;28;20057;-73
2022/11/08 05:38:29;;;;;;;8.15;2.20;;;;;;;9.39;100.00;154885.09;4996727;28;20113;-72
2022/11/08 05:41:03;;;;;;;10.82;2.03;;;;;;;9.34;100.00;154873.53;5006330;28;20042;-73
2022/11/08 05:43:29;;;;;;;8.32;2.10;;;;;;;9.27;100.00;154855.63;4998732;28;20451;-72
2022/11/08 05:45:55;;;;;;;10.15;1.98;;;;;;;9.29;100.00;154862.03;4991915;28;20045;-73
2022/11/08 05:48:20;;;;;;;9.93;2.10;;;;;;;9.31;100.00;154865.88;5006290;28;20037;-72
2022/11/08 05:50:46;;;;;;;9.77;2.03;;;;;;;9.27;100.00;154856.88;4993965;28;20697;-72
2022/11/08 05:53:12;;;;;;;7.10;2.42;;;;;;;9.21;100.00;154841.53;4993478;28;20053;-73
2022/11/08 05:55:38;;;;;;;16.67;2.63;;;;;;;9.25;100.00;154851.78;5008940;28;20080;-73
2022/11/08 05:58:03;;;;;;;12.45;2.35;;;;;;;9.22;100.00;154842.78;5010115;28;20546;-73
2022/11/08 06:00:29;;;;;;;11.57;2.22;;;;;;;9.15;100.00;154827.44;5008086;28;20057;-71
2022/11/08 06:02:55;;;;;;;10.38;2.50;;;;;;;9.14;100.00;154823.56;4993887;28;20042;-73
2022/11/08 06:05:20;;;;;;;10.63;2.45;;;;;;;9.14;100.00;154824.84;4993577;28;20077;-73
2022/11/08 06:07:46;;;;;;;11.27;2.35;;;;;;;9.11;100.00;154817.13;4994329;28;20480;-72
2022/11/08 06:10:14;;;;;;;10.82;2.35;;;;;;;9.16;100.00;154829.97;5008353;28;20088;-74
2022/11/08 06:12:40;;;;;;;9.38;2.33;;;;;;;9.13;100.00;154820.97;5012555;28;20033;-73
2022/11/08 06:15:07;;;;;;;11.52;2.45;;;;;;;9.11;100.00;154815.88;4994565;28;20046;-73
2022/11/08 06:17:33;;;;;;;9.90;2.22;;;;;;;9.17;100.00;154831.22;4994486;28;20034;-73
2022/11/08 06:19:59;;;;;;;11.75;2.55;;;;;;;9.17;100.00;154831.22;5010729;28;20503;-73
2022/11/08 06:22:25;;;;;;;7.93;2.00;;;;;;;9.19;100.00;154836.34;5025268;28;20060;-73
2022/11/08 06:24:50;;;;;;;10.50;2.53;;;;;;;9.22;100.00;154842.78;5010310;28;20042;-73
2022/11/08 06:27:16;;;;;;;14.05;2.47;;;;;;;9.26;100.00;154854.31;4999237;28;20087;-73
2022/11/08 06:29:41;;;;;;;7.38;2.05;;;;;;;9.30;100.00;154864.56;4995135;28;20041;-73
2022/11/08 06:32:10;;;;;;;9.73;2.85;;;;;;;9.35;100.00;154876.13;5022059;28;20035;-73
2022/11/08 06:34:36;;;;;;;9.60;2.20;;;;;;;9.31;100.00;154867.13;5008062;28;20092;-73
2022/11/08 06:37:03;;;;;;;8.95;2.63;;;;;;;9.30;100.00;154863.28;5009533;28;20053;-73
2022/11/08 06:39:29;;;;;;;8.82;1.95;;;;;;;9.33;100.00;154872.25;5007860;28;20044;-73
2022/11/08 06:41:55;;;;;;;9.05;1.98;;;;;;;9.43;100.00;154895.34;5010848;28;20113;-73
2022/11/08 06:44:21;;;;;;;9.25;2.13;;;;;;;9.42;100.00;154894.06;5007501;28;20041;-73
2022/11/08 06:46:46;;;;;;;8.48;2.05;;;;;;;9.45;100.00;154900.47;5006314;28;20126;-73
2022/11/08 06:49:12;;;;;;;11.57;2.13;;;;;;;9.54;100.00;154924.81;4983292;28;20053;-73
2022/11/08 06:51:37;;;;;;;8.85;2.40;;;;;;;9.54;100.00;154923.56;4990003;28;20038;-73
2022/11/08 06:54:05;;;;;;;9.05;2.17;;;;;;;9.60;100.00;154938.91;5022900;28;20037;-73
2022/11/08 06:56:32;;;;;;;8.80;2.13;;;;;;;9.58;100.00;154932.53;4990074;28;20046;-73
2022/11/08 06:58:58;;;;;;;9.48;2.13;;;;;;;9.57;100.00;154929.94;5006110;28;20046;-73
2022/11/08 07:01:24;;;;;;;10.75;2.30;;;;;;;9.52;100.00;154918.41;5007830;28;20044;-72
2022/11/08 07:03:49;;;;;;;7.72;2.17;;;;;;;9.59;100.00;154936.38;5001661;28;20053;-73
2022/11/08 07:06:15;;;;;;;7.43;2.17;;;;;;;9.55;100.00;154926.13;4998902;28;20689;-72
2022/11/08 07:08:41;;;;;;;11.20;2.40;;;;;;;9.59;100.00;154935.06;5007292;28;20044;-73
2022/11/08 07:11:07;;;;;;;8.07;1.88;;;;;;;9.64;100.00;154949.16;5008743;28;20602;-73
2022/11/08 07:13:33;;;;;;;8.00;2.00;;;;;;;9.63;100.00;154945.38;5000275;28;20117;-73
2022/11/08 07:15:59;;;;;;;14.07;2.35;;;;;;;9.58;100.00;154932.53;5021824;28;20144;-73
2022/11/08 07:18:26;;;;;;;9.10;2.50;;;;;;;9.63;100.00;154945.38;5009230;28;20029;-73
2022/11/08 07:20:52;;;;;;;8.02;2.03;;;;;;;9.59;100.00;154936.38;4988348;28;20046;-72
2022/11/08 07:23:17;;;;;;;9.23;2.00;;;;;;;9.66;100.00;154954.34;5001481;28;20053;-72
2022/11/08 07:25:43;;;;;;;6.50;1.92;;;;;;;9.63;100.00;154945.38;4992624;28;20631;-72
2022/11/08 07:28:17;;;;;;;8.95;2.15;;;;;;;9.67;100.00;154956.88;4991935;28;20164;-73
2022/11/08 07:30:44;;;;;;;10.00;2.47;;;;;;;9.67;100.00;154955.59;4980698;28;20097;-73
2022/11/08 07:33:09;;;;;;;10.57;2.58;;;;;;;9.72;100.00;154968.44;5022170;28;20049;-73
2022/11/08 07:35:35;;;;;;;9.85;2.30;;;;;;;9.73;100.00;154970.97;5008308;28;20030;-73
2022/11/08 07:38:00;;;;;;;8.45;2.38;;;;;;;9.79;100.00;154985.09;4992395;28;20545;-73
2022/11/08 07:40:26;;;;;;;9.82;2.80;;;;;;;9.92;100.00;155018.44;5009184;28;20033;-73
2022/11/08 07:42:52;;;;;;;7.75;2.10;;;;;;;10.07;100.00;155056.91;5002840;28;20411;-73
2022/11/08 07:45:17;;;;;;;8.18;2.03;;;;;;;10.18;100.00;155082.56;4990505;28;20137;-73
2022/11/08 07:47:43;;;;;;;7.45;1.90;;;;;;;10.29;100.00;155110.78;4987992;28;20030;-72
2022/11/08 07:50:09;;;;;;;7.63;2.10;;;;;;;10.41;100.00;155140.34;5023724;28;20038;-73
2022/11/08 07:52:49;;;;;;;9.20;2.00;;;;;;;10.51;100.00;155166.00;5008177;28;20034;-73
2022/11/08 07:55:21;;;;;;;6.85;2.25;;;;;;;10.60;100.00;155189.06;5005389;28;20053;-73
2022/11/08 07:58:00;;;;;;;9.55;2.20;;;;;;;10.68;100.00;155208.31;4998226;28;20508;-73
2022/11/08 08:00:35;;;;;;;6.25;2.00;;;;;;;10.67;100.00;155207.03;5015603;28;20052;-73
2022/11/08 08:03:17;;;;;;;9.57;2.33;;;;;;;10.73;100.00;155221.16;5021277;28;20050;-73
2022/11/08 08:06:03;;;;;;;9.73;2.10;;;;;;;10.83;100.00;155245.50;4999718;28;20482;-73
2022/11/08 08:08:29;;;;;;;11.75;2.20;;;;;;;10.90;100.00;155264.75;4990518;28;20100;-73
2022/11/08 08:11:06;;;;;;;9.98;2.45;;;;;;;10.95;100.00;155275.06;5007210;28;20077;-73
2022/11/08 08:13:42;;;;;;;7.32;1.65;;;;;;;10.90;100.00;155264.75;5017031;28;20050;-73
2022/11/08 08:16:29;;;;;;;5.55;2.15;;;;;;;10.94;100.00;155272.47;5011554;28;20037;-73
2022/11/08 08:18:59;;;;;;;5.50;1.80;;;;;;;10.94;100.00;155273.75;5007168;28;20050;-73
2022/11/08 08:21:31;;;;;;;6.07;2.17;;;;;;;10.99;100.00;155286.59;5022947;28;20691;-73
2022/11/08 08:24:02;;;;;;;11.35;2.55;;;;;;;11.08;100.00;155309.69;5006512;28;20046;-73
2022/11/08 08:26:30;;;;;;;6.63;1.80;;;;;;;11.25;100.00;155352.06;4986772;28;20091;-74
2022/11/08 08:29:06;;;;;;;6.32;1.70;;;;;;;11.30;100.00;155364.91;5015609;28;20056;-74
2022/11/08 08:31:36;;;;;;;10.27;1.80;;;;;;;11.35;100.00;155375.16;5004914;28;20046;-73
2022/11/08 08:34:05;;;;;;;6.95;1.95;;;;;;;11.37;100.00;155380.28;5022280;28;20037;-73
2022/11/08 08:36:38;;;;;;;7.80;2.05;;;;;;;11.42;100.00;155394.41;5001910;28;20130;-72
2022/11/08 08:39:04;;;;;;;10.85;2.30;;;;;;;11.47;100.00;155405.94;5040106;28;20125;-72
2022/11/08 08:41:34;;;;;;;6.95;1.60;;;;;;;11.47;100.00;155405.94;5002673;28;20108;-72
2022/11/08 08:44:00;;;;;;;7.78;1.90;;;;;;;11.41;100.00;155391.81;4975726;28;20042;-73
2022/11/08 08:46:26;;;;;;;8.30;1.90;;;;;;;11.40;100.00;155389.28;5005797;28;20130;-72
2022/11/08 08:48:56;;;;;;;6.55;2.20;;;;;;;11.39;100.00;155385.41;5008660;28;20025;-73
2022/11/08 08:51:39;;;;;;;4.88;1.77;;;;;;;11.33;100.00;155371.31;5007516;28;20080;-72
2022/11/08 08:54:33;;;;;;;5.57;1.50;;;;;;;11.41;100.00;155391.81;4992467;28;20495;-72
2022/11/08 08:57:06;;;;;;;7.57;1.83;;;;;;;11.41;100.00;155391.81;5021074;28;20046;-73
2022/11/08 08:59:52;;;;;;;8.07;1.83;;;;;;;11.42;100.00;155394.41;5001269;28;20526;-72
2022/11/08 09:02:18;;;;;;;6.68;1.77;;;;;;;11.49;100.00;155411.13;5022319;28;20065;-73
2022/11/08 09:04:54;;;;;;;4.28;1.40;;;;;;;11.50;100.00;155414.94;5004622;28;20049;-73
2022/11/08 09:07:30;;;;;;;5.63;1.70;;;;;;;11.60;100.00;155438.03;4979968;28;20112;-73
2022/11/08 09:10:15;;;;;;;4.97;1.60;;;;;;;11.79;100.00;155486.84;5006517;28;20557;-73
2022/11/08 09:12:40;;;;;;;8.75;1.65;;;;;;;11.81;100.00;155492.00;5007915;28;20237;-73
2022/11/08 09:15:06;;;;;;;5.05;1.52;;;;;;;11.86;100.00;155503.53;5005858;28;20037;-72
2022/11/08 09:17:32;;;;;;;7.28;1.88;;;;;;;11.90;100.00;155512.56;5006805;28;20025;-72
2022/11/08 09:19:57;;;;;;;5.88;1.73;;;;;;;11.94;100.00;155524.16;5005924;28;20050;-72
2022/11/08 09:22:23;;;;;;;6.80;1.88;;;;;;;11.99;100.00;155536.94;4989377;28;20053;-73
2022/11/08 09:24:48;;;;;;;6.57;1.83;;;;;;;12.04;100.00;155549.81;5005876;28;20037;-73
2022/11/08 09:27:14;;;;;;;5.82;1.70;;;;;;;12.15;100.00;155575.47;4995656;28;20572;-72
2022/11/08 09:29:40;;;;;;;7.65;1.80;;;;;;;12.23;100.00;155596.06;4985859;28;20046;-73
2022/11/08 09:32:06;;;;;;;5.05;1.42;;;;;;;12.22;100.00;155594.78;5002555;28;20583;-72
2022/11/08 09:34:32;;;;;;;7.25;1.85;;;;;;;12.23;100.00;155596.06;5007281;28;20112;-72
2022/11/08 09:36:57;;;;;;;6.28;2.10;;;;;;;12.19;100.00;155585.78;4968982;28;20080;-72
2022/11/08 09:39:23;;;;;;;9.55;1.80;;;;;;;12.21;100.00;155590.91;4996559;28;20034;-72
2022/11/08 09:42:12;;;;;;;10.48;2.03;;;;;;;12.20;100.00;155589.59;4990655;28;20121;-72
2022/11/08 09:45:01;;;;;;;5.93;1.77;;;;;;;12.09;100.00;155561.34;4978366;28;20125;-73
2022/11/08 09:47:41;;;;;;;6.82;1.98;;;;;;;12.22;100.00;155594.78;4999402;28;20764;-73
2022/11/08 09:50:29;;;;;;;6.53;1.55;;;;;;;12.26;100.00;155603.72;4986566;28;20033;-73
2022/11/08 09:52:58;;;;;;;10.88;2.00;;;;;;;12.35;100.00;155626.84;5023607;28;20034;-73
2022/11/08 09:55:30;;;;;;;6.63;1.60;;;;;;;12.42;100.00;155643.56;5005796;28;20099;-73
2022/11/08 09:58:12;;;;;;;;;;;;;;;12.39;100.00;155637.13;4990551;28;20049;-73
2022/11/08 10:00:39;;;;;;;6.65;1.90;;;;;;;12.33;100.00;155621.72;4985441;28;20375;-72
2022/11/08 10:03:07;;;;;;;7.38;2.15;;;;;;;12.34;100.00;155622.97;5005684;28;20081;-72
2022/11/08 10:05:41;;;;;;;5.30;1.30;;;;;;;12.28;100.00;155608.84;4987458;28;20042;-73
2022/11/08 10:08:17;;;;;;;4.40;1.83;;;;;;;12.36;100.00;155629.44;4987547;28;20041;-73
2022/11/08 10:11:23;;;;;;;3.78;1.40;;;;;;;12.37;100.00;155631.97;4990276;28;20549;-73
2022/11/08 10:14:15;;;;;;;3.72;1.38;;;;;;;12.37;100.00;155630.72;4994647;28;20053;-73
2022/11/08 10:16:48;;;;;;;6.97;1.70;;;;;;;12.32;100.00;155617.84;4958279;28;20594;-72
2022/11/08 10:19:46;;;;;;;5.32;1.65;;;;;;;12.48;100.00;155657.69;5022984;28;20076;-73
2022/11/08 10:22:26;;;;;;;5.60;1.80;;;;;;;12.52;100.00;155667.97;4949112;28;20046;-73
2022/11/08 10:25:16;;;;;;;5.53;2.03;;;;;;;12.54;100.00;155673.09;5020030;28;20033;-73
2022/11/08 10:27:42;;;;;;;7.85;1.60;;;;;;;12.60;100.00;155688.50;4998452;28;20040;-73
2022/11/08 10:30:21;;;;;;;6.20;1.77;;;;;;;12.66;100.00;155703.94;5005856;28;20042;-73
2022/11/08 10:32:52;;;;;;;4.75;1.80;;;;;;;12.69;100.00;155710.34;4993109;28;20038;-73
2022/11/08 10:35:25;;;;;;;9.98;1.80;;;;;;;12.80;100.00;155739.88;5008672;28;20029;-73
2022/11/08 10:37:54;;;;;;;4.70;1.65;;;;;;;12.84;100.00;155750.16;5009617;28;20514;-72
2022/11/08 10:40:57;;;;;;;4.88;1.63;;;;;;;12.91;100.00;155765.59;4997897;28;20042;-73
2022/11/08 10:43:37;;;;;;;5.13;1.58;;;;;;;13.05;100.00;155801.56;5006913;28;20044;-73
2022/11/08 10:46:03;;;;;;;6.70;1.73;;;;;;;13.10;100.00;155813.16;4984558;28;20044;-73
2022/11/08 10:48:34;;;;;;;4.45;1.90;;;;;;;13.10;100.00;155813.16;4966480;28;20038;-75
2022/11/08 10:51:00;;;;;;;5.20;1.90;;;;;;;13.12;100.00;155818.28;4991693;28;20049;-73
2022/11/08 10:53:28;;;;;;;5.40;1.77;;;;;;;13.11;100.00;155817.00;5008432;28;20136;-73
2022/11/08 10:56:03;;;;;;;7.10;1.80;;;;;;;13.21;100.00;155841.41;5009186;28;20108;-74
2022/11/08 10:58:38;;;;;;;4.10;1.40;;;;;;;13.22;100.00;155845.28;5009155;28;20072;-73
2022/11/08 11:01:14;;;;;;;3.17;1.30;;;;;;;13.25;100.00;155852.97;4992315;28;20100;-73
2022/11/08 11:03:41;;;;;;;5.75;1.80;;;;;;;13.26;100.00;155854.28;5008372;28;20069;-74
2022/11/08 11:06:28;;;;;;;3.58;1.20;;;;;;;13.30;100.00;155863.22;4990515;28;20069;-74
2022/11/08 11:08:57;;;;;;;5.90;1.73;;;;;;;13.32;100.00;155869.75;4989863;28;20096;-73
2022/11/08 11:11:36;;;;;;;4.68;1.40;;;;;;;13.42;100.00;155894.16;4976683;28;20081;-73
2022/11/08 11:14:17;;;;;;;5.47;1.52;;;;;;;13.50;100.00;155914.69;4991772;28;20038;-73
2022/11/08 11:17:06;;;;;;;6.90;1.95;;;;;;;13.52;100.00;155919.84;4987489;28;20076;-74
2022/11/08 11:19:33;;;;;;;3.55;1.40;;;;;;;13.59;100.00;155937.84;5008705;28;20034;-73
2022/11/08 11:22:06;;;;;;;7.22;1.55;;;;;;;13.68;100.00;155958.44;5009204;28;20091;-73
2022/11/08 11:24:34;;;;;;;3.00;1.33;;;;;;;13.81;100.00;155993.13;5008536;28;20084;-72
2022/11/08 11:27:06;;;;;;;3.78;1.35;;;;;;;13.86;100.00;156003.41;4999749;28;20045;-72
2022/11/08 11:29:36;;;;;;;3.78;1.50;;;;;;;13.92;100.00;156020.13;5016100;28;20037;-72
2022/11/08 11:32:22;;;;;;;5.13;1.65;;;;;;;14.09;98.62;156062.56;4990894;28;20046;-73
2022/11/08 11:34:52;;;;;;;6.13;1.40;;;;;;;14.10;97.21;156065.09;5006481;28;20049;-73
2022/11/08 11:37:39;;;;;;;4.03;1.08;;;;;;;14.18;95.82;156085.72;5010100;28;20033;-72
2022/11/08 11:40:39;;;;;;;3.78;1.20;;;;;;;14.28;95.78;156110.13;4989325;28;20558;-74
2022/11/08 11:43:16;;;;;;;6.40;1.15;;;;;;;14.31;95.19;156116.53;5000984;28;20041;-73
2022/11/08 11:45:49;;;;;;;2.70;1.13;;;;;;;14.41;95.28;156142.28;5008281;28;20040;-73
2022/11/08 11:48:24;;;;;;;3.55;1.17;;;;;;;14.36;93.33;156130.69;5007461;28;20042;-73
2022/11/08 11:50:50;;;;;;;3.53;1.08;;;;;;;14.38;93.53;156134.56;4992252;28;20045;-73